createdAt,value
2024-05-09T00:00:47.516Z,10.38
2024-05-09T00:03:15.153Z,10.13
2024-05-09T00:05:46.356Z,9.40
2024-05-09T00:08:13.707Z,36.85
2024-05-09T00:10:41.481Z,24.67
2024-05-09T00:13:10.918Z,28.13
2024-05-09T00:15:39.183Z,13.82
2024-05-09T00:18:08.162Z,11.45
2024-05-09T00:20:39.815Z,10.07
2024-05-09T00:23:12.984Z,10.25
2024-05-09T00:25:44.107Z,9.65
2024-05-09T00:28:13.230Z,9.50
2024-05-09T00:30:40.723Z,10.07
2024-05-09T00:33:09.843Z,9.18
2024-05-09T00:35:39.362Z,8.25
2024-05-09T00:38:06.913Z,8.70
2024-05-09T00:40:43.583Z,8.13
2024-05-09T00:43:14.964Z,20.63
2024-05-09T00:45:44.002Z,14.55
2024-05-09T00:48:14.990Z,13.23
2024-05-09T00:50:46.560Z,13.23
2024-05-09T00:53:17.502Z,10.10
2024-05-09T00:55:45.133Z,8.93
2024-05-09T00:58:16.082Z,9.70
2024-05-09T01:00:44.125Z,9.45
2024-05-09T01:03:13.731Z,13.20
2024-05-09T01:05:43.422Z,10.30
2024-05-09T01:08:12.432Z,10.95
2024-05-09T01:10:43.705Z,10.43
2024-05-09T01:13:12.318Z,9.23
2024-05-09T01:15:39.345Z,8.82
2024-05-09T01:18:12.617Z,8.88
2024-05-09T01:20:44.588Z,9.45
2024-05-09T01:23:14.887Z,8.48
2024-05-09T01:25:44.537Z,9.40
2024-05-09T01:28:11.758Z,9.55
2024-05-09T01:30:39.759Z,10.05
2024-05-09T01:33:09.582Z,10.23
2024-05-09T01:35:42.087Z,8.88
2024-05-09T01:38:14.104Z,9.50
2024-05-09T01:40:41.480Z,10.15
2024-05-09T01:43:12.550Z,10.90
2024-05-09T01:45:41.089Z,10.55
2024-05-09T01:48:11.337Z,9.57
2024-05-09T01:50:42.209Z,9.48
2024-05-09T01:53:13.756Z,9.32
2024-05-09T01:55:42.549Z,9.32
2024-05-09T01:58:09.920Z,10.18
2024-05-09T02:00:41.001Z,9.80
2024-05-09T02:03:17.976Z,9.85
2024-05-09T02:05:50.462Z,10.68
2024-05-09T02:08:22.151Z,10.23
2024-05-09T02:10:50.591Z,11.70
2024-05-09T02:13:18.833Z,9.90
2024-05-09T02:15:46.282Z,9.63
2024-05-09T02:18:14.137Z,10.65
2024-05-09T02:20:44.973Z,10.82
2024-05-09T02:23:12.643Z,9.32
2024-05-09T02:25:43.817Z,8.57
2024-05-09T02:28:10.846Z,10.38
2024-05-09T02:30:42.314Z,9.07
2024-05-09T02:33:12.852Z,8.02
2024-05-09T02:35:43.871Z,8.75
2024-05-09T02:38:14.863Z,9.73
2024-05-09T02:40:41.950Z,9.15
2024-05-09T02:43:12.638Z,9.05
2024-05-09T02:46:03.848Z,9.43
2024-05-09T02:48:30.961Z,9.25
2024-05-09T02:50:58.257Z,8.70
2024-05-09T02:53:26.258Z,10.48
2024-05-09T02:55:53.614Z,10.60
2024-05-09T02:58:21.124Z,12.82
2024-05-09T03:00:51.671Z,9.43
2024-05-09T03:03:18.977Z,9.35
2024-05-09T03:05:48.041Z,8.27
2024-05-09T03:08:15.703Z,9.48
2024-05-09T03:10:47.731Z,8.68
2024-05-09T03:13:16.072Z,8.45
2024-05-09T03:15:48.134Z,10.50
2024-05-09T03:18:15.591Z,8.57
2024-05-09T03:20:46.010Z,9.45
2024-05-09T03:23:13.142Z,9.57
2024-05-09T03:25:43.360Z,9.60
2024-05-09T03:28:11.693Z,9.57
2024-05-09T03:30:42.172Z,9.50
2024-05-09T03:33:19.551Z,10.13
2024-05-09T03:35:49.633Z,10.70
2024-05-09T03:38:17.114Z,11.82
2024-05-09T03:40:49.057Z,12.32
2024-05-09T03:43:17.488Z,11.48
2024-05-09T03:45:45.963Z,9.27
2024-05-09T03:48:14.113Z,10.48
2024-05-09T03:50:41.921Z,9.57
2024-05-09T03:53:14.052Z,9.73
2024-05-09T03:55:44.848Z,10.25
2024-05-09T03:58:14.704Z,9.73
2024-05-09T04:00:45.491Z,9.23
2024-05-09T04:03:19.094Z,9.32
2024-05-09T04:05:49.176Z,8.98
2024-05-09T04:10:43.389Z,8.45
2024-05-09T04:13:15.500Z,9.32
2024-05-09T04:15:42.476Z,8.63
2024-05-09T04:18:13.055Z,9.45
2024-05-09T04:20:41.351Z,9.25
2024-05-09T04:23:13.997Z,9.00
2024-05-09T04:25:43.339Z,10.00
2024-05-09T04:28:10.554Z,9.93
2024-05-09T04:30:40.530Z,9.30
2024-05-09T04:33:12.195Z,9.25
2024-05-09T04:35:43.560Z,9.00
2024-05-09T04:38:14.427Z,9.35
2024-05-09T04:40:42.610Z,8.95
2024-05-09T04:43:24.051Z,8.45
2024-05-09T04:45:51.140Z,8.63
2024-05-09T04:48:19.548Z,9.18
2024-05-09T04:50:47.111Z,9.77
2024-05-09T04:53:21.349Z,9.35
2024-05-09T04:55:48.505Z,8.55
2024-05-09T04:58:19.581Z,9.32
2024-05-09T05:00:46.637Z,13.40
2024-05-09T05:03:15.847Z,11.32
2024-05-09T05:05:45.746Z,10.75
2024-05-09T05:08:16.891Z,10.90
2024-05-09T05:10:44.901Z,10.90
2024-05-09T05:13:25.957Z,11.27
2024-05-09T05:15:58.956Z,11.10
2024-05-09T05:18:27.875Z,10.98
2024-05-09T05:20:57.167Z,11.50
2024-05-09T05:23:24.891Z,9.88
2024-05-09T05:25:56.583Z,10.50
2024-05-09T05:28:24.734Z,8.68
2024-05-09T05:30:52.752Z,9.23
2024-05-09T05:33:20.793Z,8.88
2024-05-09T05:35:48.422Z,8.45
2024-05-09T05:38:41.242Z,9.95
2024-05-09T05:41:08.693Z,8.02
2024-05-09T05:43:35.714Z,9.85
2024-05-09T05:46:06.372Z,10.75
2024-05-09T05:48:33.598Z,10.43
2024-05-09T05:51:04.231Z,9.82
2024-05-09T05:53:32.134Z,8.70
2024-05-09T05:55:59.636Z,9.43
2024-05-09T05:58:29.615Z,11.43
2024-05-09T06:03:24.322Z,10.95
2024-05-09T06:05:55.187Z,10.10
2024-05-09T06:08:28.022Z,9.80
2024-05-09T06:10:57.813Z,10.60
2024-05-09T06:13:34.257Z,10.93
2024-05-09T06:16:02.592Z,11.45
2024-05-09T06:18:32.782Z,12.27
2024-05-09T06:20:59.884Z,12.90
2024-05-09T06:23:30.007Z,12.27
2024-05-09T06:25:57.707Z,15.43
2024-05-09T06:28:25.710Z,11.40
2024-05-09T06:30:53.486Z,13.23
2024-05-09T06:33:21.303Z,13.13
2024-05-09T06:35:49.014Z,13.63
2024-05-09T06:38:18.588Z,13.93
2024-05-09T06:40:45.791Z,14.18
2024-05-09T06:43:18.857Z,14.43
2024-05-09T06:45:53.011Z,14.32
2024-05-09T06:48:22.922Z,13.35
2024-05-09T06:50:50.808Z,13.07
2024-05-09T06:53:24.074Z,12.90
2024-05-09T06:55:51.779Z,13.23
2024-05-09T06:58:19.749Z,13.27
2024-05-09T07:00:47.540Z,13.98
2024-05-09T07:03:19.991Z,13.00
2024-05-09T07:05:48.974Z,11.98
2024-05-09T07:08:17.782Z,12.15
2024-05-09T07:10:45.574Z,11.35
2024-05-09T07:13:15.634Z,12.60
2024-05-09T07:15:43.877Z,13.15
2024-05-09T07:18:20.770Z,12.88
2024-05-09T07:20:51.709Z,11.70
2024-05-09T07:23:21.079Z,12.10
2024-05-09T07:25:48.798Z,12.00
2024-05-09T07:28:19.880Z,11.50
2024-05-09T07:30:47.578Z,11.00
2024-05-09T07:33:23.454Z,11.13
2024-05-09T07:35:52.831Z,10.70
2024-05-09T07:38:20.985Z,11.35
2024-05-09T07:40:49.829Z,10.18
2024-05-09T07:43:17.478Z,9.55
2024-05-09T07:45:52.141Z,11.40
2024-05-09T07:53:39.996Z,10.30
2024-05-09T07:56:12.764Z,9.02
2024-05-09T07:58:40.810Z,8.93
2024-05-09T08:01:13.474Z,9.15
2024-05-09T08:03:41.217Z,8.75
2024-05-09T08:06:09.231Z,9.25
2024-05-09T08:08:36.332Z,7.90
2024-05-09T08:11:03.514Z,7.22
2024-05-09T08:13:30.963Z,7.47
2024-05-09T08:15:58.562Z,7.60
2024-05-09T08:18:25.686Z,6.90
2024-05-09T08:20:52.880Z,6.53
2024-05-09T08:23:19.904Z,6.35
2024-05-09T08:25:47.040Z,5.93
2024-05-09T08:28:15.431Z,6.38
2024-05-09T08:30:43.396Z,6.78
2024-05-09T08:33:10.856Z,5.97
2024-05-09T08:35:38.121Z,5.18
2024-05-09T08:38:06.944Z,5.50
2024-05-09T08:40:36.981Z,6.13
2024-05-09T08:43:11.400Z,6.60
2024-05-09T08:45:43.987Z,6.53
2024-05-09T08:48:15.187Z,10.57
2024-05-09T08:50:43.949Z,7.22
2024-05-09T08:53:12.325Z,6.72
2024-05-09T08:55:43.378Z,6.38
2024-05-09T08:58:16.620Z,5.70
2024-05-09T09:00:45.814Z,8.85
2024-05-09T09:03:17.932Z,6.00
2024-05-09T09:06:03.416Z,5.80
2024-05-09T09:08:30.747Z,4.68
2024-05-09T09:11:01.005Z,4.45
2024-05-09T09:13:28.679Z,5.28
2024-05-09T09:15:57.993Z,5.13
2024-05-09T09:20:54.237Z,3.42
2024-05-09T09:23:21.241Z,3.90
2024-05-09T09:25:48.487Z,3.90
2024-05-09T09:28:16.044Z,3.38
2024-05-09T09:30:43.676Z,4.45
2024-05-09T09:33:11.596Z,7.18
2024-05-09T09:35:41.788Z,8.18
2024-05-09T09:38:10.847Z,7.38
2024-05-09T09:40:46.714Z,9.10
2024-05-09T09:43:23.060Z,7.45
2024-05-09T09:45:51.544Z,5.22
2024-05-09T09:48:21.649Z,5.22
2024-05-09T09:50:54.604Z,4.50
2024-05-09T09:53:23.635Z,5.07
2024-05-09T09:55:52.327Z,4.90
2024-05-09T09:58:19.780Z,5.97
2024-05-09T10:00:47.329Z,5.55
2024-05-09T10:03:14.521Z,5.85
2024-05-09T10:05:45.326Z,6.53
2024-05-09T10:08:16.157Z,5.90
2024-05-09T10:10:47.690Z,4.90
2024-05-09T10:13:15.420Z,5.30
2024-05-09T10:15:48.167Z,5.07
2024-05-09T10:18:15.850Z,5.20
2024-05-09T10:20:46.698Z,4.95
2024-05-09T10:23:30.155Z,5.60
2024-05-09T10:26:05.898Z,4.82
2024-05-09T10:28:35.777Z,5.25
2024-05-09T10:31:14.935Z,4.70
2024-05-09T10:33:52.873Z,5.32
2024-05-09T10:36:24.028Z,4.03
2024-05-09T10:38:52.924Z,3.88
2024-05-09T10:41:21.126Z,4.72
2024-05-09T10:43:48.621Z,4.53
2024-05-09T10:46:16.041Z,3.85
2024-05-09T10:48:44.279Z,3.10
2024-05-09T10:51:11.839Z,2.80
2024-05-09T10:53:43.572Z,2.78
2024-05-09T10:56:11.399Z,3.00
2024-05-09T10:58:38.393Z,3.08
2024-05-09T11:01:07.380Z,5.68
2024-05-09T11:03:35.652Z,2.80
2024-05-09T11:06:03.319Z,2.83
2024-05-09T11:08:32.374Z,3.03
2024-05-09T11:13:32.818Z,2.60
2024-05-09T11:16:00.962Z,3.33
2024-05-09T11:18:33.263Z,2.92
2024-05-09T11:21:03.400Z,3.05
2024-05-09T11:23:30.926Z,2.75
2024-05-09T11:25:59.065Z,3.10
2024-05-09T11:28:29.108Z,3.08
2024-05-09T11:31:07.426Z,2.55
2024-05-09T11:33:41.585Z,2.90
2024-05-09T11:36:09.758Z,2.90
2024-05-09T11:38:37.183Z,2.95
2024-05-09T11:41:05.601Z,2.90
2024-05-09T11:43:33.161Z,3.03
2024-05-09T11:46:03.204Z,2.80
2024-05-09T11:48:30.962Z,2.95
2024-05-09T11:50:58.304Z,2.70
2024-05-09T11:53:25.580Z,2.70
2024-05-09T11:55:52.823Z,2.95
2024-05-09T11:58:21.646Z,2.90
2024-05-09T12:00:48.822Z,2.70
2024-05-09T12:03:16.231Z,3.70
2024-05-09T12:05:43.513Z,3.17
2024-05-09T12:08:10.742Z,2.80
2024-05-09T12:10:38.592Z,2.72
2024-05-09T12:13:07.031Z,2.55
2024-05-09T12:15:38.079Z,3.00
2024-05-09T12:18:07.419Z,2.80
2024-05-09T12:20:38.425Z,2.58
2024-05-09T12:23:09.974Z,2.60
2024-05-09T12:25:39.594Z,2.53
2024-05-09T12:28:07.752Z,3.15
2024-05-09T12:30:38.810Z,2.88
2024-05-09T12:33:08.882Z,3.00
2024-05-09T12:35:36.397Z,2.67
2024-05-09T12:38:03.779Z,3.25
2024-05-09T12:40:35.994Z,3.47
2024-05-09T12:43:09.720Z,3.70
2024-05-09T12:45:38.183Z,3.88
2024-05-09T12:48:08.669Z,3.67
2024-05-09T12:50:36.948Z,4.53
2024-05-09T12:53:05.228Z,3.55
2024-05-09T12:55:41.253Z,3.80
2024-05-09T12:58:19.342Z,3.72
2024-05-09T13:00:47.142Z,3.30
2024-05-09T13:03:14.946Z,3.80
2024-05-09T13:05:45.262Z,3.63
2024-05-09T13:08:13.504Z,3.90
2024-05-09T13:10:40.924Z,3.40
2024-05-09T13:13:10.239Z,3.55
2024-05-09T13:18:05.955Z,3.53
2024-05-09T13:20:35.451Z,3.10
2024-05-09T13:23:05.434Z,3.40
2024-05-09T13:25:35.009Z,3.97
2024-05-09T13:28:03.321Z,3.33
2024-05-09T13:30:39.042Z,3.47
2024-05-09T13:33:12.799Z,3.53
2024-05-09T13:35:46.914Z,3.45
2024-05-09T13:38:17.683Z,3.47
2024-05-09T13:40:45.137Z,3.80
2024-05-09T13:43:12.641Z,3.83
2024-05-09T13:45:40.110Z,3.90
2024-05-09T13:48:10.022Z,3.30
2024-05-09T13:50:37.649Z,3.65
2024-05-09T13:53:07.066Z,3.60
2024-05-09T13:55:37.580Z,3.80
2024-05-09T13:58:05.436Z,3.42
2024-05-09T14:00:43.662Z,3.50
2024-05-09T14:03:16.242Z,3.70
2024-05-09T14:08:12.106Z,3.50
2024-05-09T14:10:44.780Z,3.53
2024-05-09T14:13:12.996Z,3.47
2024-05-09T14:15:40.752Z,3.55
2024-05-09T14:18:10.177Z,3.70
2024-05-09T14:20:39.423Z,3.35
2024-05-09T14:23:06.446Z,3.65
2024-05-09T14:25:38.655Z,3.75
2024-05-09T14:28:08.993Z,3.80
2024-05-09T14:30:38.031Z,3.45
2024-05-09T14:33:07.380Z,3.60
2024-05-09T14:35:35.533Z,3.88
2024-05-09T14:38:03.149Z,3.65
2024-05-09T14:40:40.504Z,3.67
2024-05-09T14:43:14.613Z,3.70
2024-05-09T14:45:42.804Z,3.83
2024-05-09T14:48:10.747Z,3.90
2024-05-09T14:50:40.123Z,3.65
2024-05-09T14:53:10.064Z,3.65
2024-05-09T14:55:40.069Z,3.75
2024-05-09T14:58:09.327Z,3.45
2024-05-09T15:00:46.206Z,3.50
2024-05-09T15:03:20.568Z,3.45
2024-05-09T15:05:49.098Z,3.85
2024-05-09T15:08:18.609Z,3.50
2024-05-09T15:10:46.891Z,4.72
2024-05-09T15:13:16.479Z,3.63
2024-05-09T15:15:44.324Z,3.50
2024-05-09T15:18:11.835Z,3.72
2024-05-09T15:20:40.994Z,3.50
2024-05-09T15:25:36.502Z,3.60
2024-05-09T15:28:04.840Z,3.70
2024-05-09T15:30:33.739Z,3.45
2024-05-09T15:33:06.325Z,3.50
2024-05-09T15:35:34.484Z,3.63
2024-05-09T15:38:03.335Z,3.65
2024-05-09T15:40:37.845Z,3.10
2024-05-09T15:43:09.551Z,3.30
2024-05-09T15:45:38.198Z,3.53
2024-05-09T15:48:06.472Z,3.55
2024-05-09T15:50:38.770Z,3.20
2024-05-09T15:53:09.700Z,3.15
2024-05-09T15:58:06.151Z,3.35
2024-05-09T16:00:39.113Z,3.35
2024-05-09T16:03:14.322Z,3.53
2024-05-09T16:05:45.814Z,3.70
2024-05-09T16:08:15.203Z,3.42
2024-05-09T16:10:46.136Z,3.50
2024-05-09T16:13:14.398Z,3.17
2024-05-09T16:15:41.706Z,3.78
2024-05-09T16:18:09.004Z,3.63
2024-05-09T16:20:40.235Z,3.55
2024-05-09T16:23:09.750Z,3.45
2024-05-09T16:25:37.440Z,3.25
2024-05-09T16:28:08.808Z,3.47
2024-05-09T16:30:41.091Z,3.30
2024-05-09T16:33:09.027Z,3.60
2024-05-09T16:35:37.509Z,3.72
2024-05-09T16:38:06.173Z,3.95
2024-05-09T16:40:38.191Z,3.35
2024-05-09T16:43:09.057Z,3.92
2024-05-09T16:45:37.052Z,3.38
2024-05-09T16:48:04.761Z,3.50
2024-05-09T16:50:34.514Z,4.03
2024-05-09T16:53:04.128Z,3.75
2024-05-09T16:55:31.791Z,3.60
2024-05-09T16:57:59.223Z,3.83
2024-05-09T17:00:36.291Z,3.85
2024-05-09T17:03:10.161Z,3.85
2024-05-09T17:05:38.316Z,3.65
2024-05-09T17:08:06.163Z,3.63
2024-05-09T17:10:35.052Z,3.83
2024-05-09T17:13:04.430Z,3.70
2024-05-09T17:15:32.911Z,3.33
2024-05-09T17:18:00.775Z,3.92
2024-05-09T17:20:33.222Z,4.03
2024-05-09T17:23:03.404Z,4.57
2024-05-09T17:25:30.480Z,4.43
2024-05-09T17:27:59.719Z,3.83
2024-05-09T17:30:32.548Z,3.42
2024-05-09T17:33:07.601Z,3.75
2024-05-09T17:35:36.161Z,5.65
2024-05-09T17:38:03.382Z,4.78
2024-05-09T17:40:34.007Z,4.40
2024-05-09T17:43:05.136Z,4.93
2024-05-09T17:48:00.432Z,4.80
2024-05-09T17:50:35.109Z,4.30
2024-05-09T17:53:05.691Z,5.10
2024-05-09T17:55:33.188Z,4.63
2024-05-09T17:58:00.866Z,4.15
2024-05-09T18:00:37.044Z,4.20
2024-05-09T18:03:08.558Z,4.75
2024-05-09T18:05:37.055Z,6.38
2024-05-09T18:08:06.060Z,7.03
2024-05-09T18:10:37.426Z,8.00
2024-05-09T18:13:10.629Z,7.82
2024-05-09T18:15:38.806Z,8.30
2024-05-09T18:18:07.095Z,7.85
2024-05-09T18:20:42.063Z,4.70
2024-05-09T18:23:14.411Z,3.92
2024-05-09T18:25:42.684Z,3.85
2024-05-09T18:28:10.227Z,3.92
2024-05-09T18:30:37.893Z,4.38
2024-05-09T18:33:07.804Z,4.63
2024-05-09T18:35:36.357Z,4.28
2024-05-09T18:38:05.387Z,3.95
2024-05-09T18:40:36.184Z,4.38
2024-05-09T18:43:07.164Z,4.15
2024-05-09T18:45:36.485Z,4.22
2024-05-09T18:48:05.588Z,4.50
2024-05-09T18:50:37.534Z,4.43
2024-05-09T18:53:08.237Z,4.35
2024-05-09T18:55:35.476Z,3.88
2024-05-09T18:58:03.577Z,4.05
2024-05-09T19:00:35.389Z,4.25
2024-05-09T19:03:10.261Z,4.63
2024-05-09T19:05:40.620Z,4.57
2024-05-09T19:08:08.826Z,5.25
2024-05-09T19:10:38.709Z,5.05
2024-05-09T19:13:10.826Z,4.45
2024-05-09T19:15:40.769Z,6.25
2024-05-09T19:18:08.757Z,6.47
2024-05-09T19:20:37.062Z,7.80
2024-05-09T19:23:06.472Z,6.97
2024-05-09T19:25:35.060Z,6.15
2024-05-09T19:28:03.150Z,6.43
2024-05-09T19:30:38.221Z,6.32
2024-05-09T19:33:10.195Z,6.20
2024-05-09T19:35:38.313Z,6.68
2024-05-09T19:38:05.702Z,6.75
2024-05-09T19:40:34.489Z,6.57
2024-05-09T19:43:03.384Z,6.25
2024-05-09T19:45:32.578Z,6.53
2024-05-09T19:48:00.169Z,7.07
2024-05-09T19:50:36.795Z,7.00
2024-05-09T19:55:36.188Z,6.53
2024-05-09T19:58:05.559Z,7.20
2024-05-09T20:00:40.387Z,6.43
2024-05-09T20:03:10.365Z,6.30
2024-05-09T20:05:38.742Z,6.95
2024-05-09T20:08:06.867Z,6.07
2024-05-09T20:10:35.690Z,6.30
2024-05-09T20:13:08.386Z,6.97
2024-05-09T20:15:37.944Z,7.00
2024-05-09T20:20:39.352Z,6.32
2024-05-09T20:23:10.261Z,6.65
2024-05-09T20:25:37.474Z,6.38
2024-05-09T20:28:06.618Z,6.47
2024-05-09T20:30:35.179Z,6.10
2024-05-09T20:33:04.873Z,6.90
2024-05-09T20:35:33.529Z,6.13
2024-05-09T20:38:02.153Z,7.25
2024-05-09T20:40:34.247Z,7.60
2024-05-09T20:43:05.129Z,6.95
2024-05-09T20:45:32.542Z,7.13
2024-05-09T20:47:59.938Z,7.13
2024-05-09T20:50:36.067Z,7.35
2024-05-09T20:53:09.345Z,7.63
2024-05-09T20:58:03.594Z,7.50
2024-05-09T21:00:38.973Z,7.40
2024-05-09T21:03:10.168Z,7.35
2024-05-09T21:05:37.523Z,7.30
2024-05-09T21:08:04.959Z,6.57
2024-05-09T21:10:33.640Z,6.20
2024-05-09T21:13:03.122Z,6.80
2024-05-09T21:15:31.500Z,6.75
2024-05-09T21:17:58.907Z,6.90
2024-05-09T21:20:31.237Z,6.65
2024-05-09T21:23:00.151Z,6.63
2024-05-09T21:25:27.542Z,7.95
2024-05-09T21:27:54.783Z,7.05
2024-05-09T21:30:32.456Z,7.75
2024-05-09T21:33:14.785Z,7.55
2024-05-09T21:35:44.306Z,6.68
2024-05-09T21:38:14.218Z,7.10
2024-05-09T21:40:42.158Z,7.30
2024-05-09T21:43:09.476Z,8.35
2024-05-09T21:45:37.398Z,6.82
2024-05-09T21:48:05.940Z,7.35
2024-05-09T21:50:39.623Z,7.05
2024-05-09T21:53:08.969Z,7.15
2024-05-09T21:55:36.034Z,6.70
2024-05-09T21:58:03.513Z,7.35
2024-05-09T22:00:36.563Z,8.35
2024-05-09T22:03:10.859Z,8.07
2024-05-09T22:05:42.144Z,7.57
2024-05-09T22:08:09.779Z,7.80
2024-05-09T22:10:37.339Z,7.72
2024-05-09T22:13:06.379Z,8.30
2024-05-09T22:15:39.454Z,8.88
2024-05-09T22:18:08.711Z,9.18
2024-05-09T22:20:39.051Z,8.30
2024-05-09T22:23:07.815Z,9.15
2024-05-09T22:25:35.509Z,9.00
2024-05-09T22:28:03.326Z,8.75
2024-05-09T22:30:36.435Z,8.70
2024-05-09T22:33:10.809Z,8.48
2024-05-09T22:35:39.433Z,8.38
2024-05-09T22:38:06.754Z,8.98
2024-05-09T22:40:43.341Z,8.75
2024-05-09T22:43:21.058Z,8.77
2024-05-09T22:45:50.104Z,27.48
2024-05-09T22:48:17.654Z,10.50
2024-05-09T22:50:45.150Z,9.00
2024-05-09T22:53:12.151Z,9.57
2024-05-09T22:55:39.091Z,9.13
2024-05-09T22:58:06.199Z,9.40
2024-05-09T23:00:33.991Z,9.35
2024-05-09T23:03:01.841Z,10.27
2024-05-09T23:05:29.690Z,9.90
2024-05-09T23:07:57.100Z,10.20
2024-05-09T23:10:32.148Z,9.77
2024-05-09T23:13:03.684Z,8.15
2024-05-09T23:15:31.048Z,8.38
2024-05-09T23:17:58.665Z,8.30
2024-05-09T23:20:33.483Z,9.52
2024-05-09T23:23:05.768Z,9.80
2024-05-09T23:25:32.830Z,9.10
2024-05-09T23:27:59.961Z,8.35
2024-05-09T23:30:34.424Z,9.35
2024-05-09T23:33:06.329Z,9.23
2024-05-09T23:35:33.491Z,10.40
2024-05-09T23:38:00.589Z,11.15
2024-05-09T23:40:37.432Z,14.52
2024-05-09T23:43:11.153Z,10.57
2024-05-09T23:45:38.883Z,10.95
2024-05-09T23:48:06.712Z,10.32
2024-05-09T23:50:36.999Z,10.40
2024-05-09T23:53:07.631Z,11.18
2024-05-09T23:55:35.856Z,11.38
2024-05-09T23:58:03.027Z,12.40
